createdAt,value
2018-08-25T00:00:52.378Z,14.30
2018-08-25T00:05:55.634Z,14.30
2018-08-25T00:10:58.908Z,14.00
2018-08-25T00:16:02.176Z,14.00
2018-08-25T00:21:05.462Z,14.10
2018-08-25T00:26:08.740Z,14.20
2018-08-25T00:31:17.331Z,14.30
2018-08-25T00:36:20.789Z,14.10
2018-08-25T00:41:24.037Z,14.10
2018-08-25T00:46:27.305Z,14.10
2018-08-25T00:51:30.576Z,14.10
2018-08-25T00:56:33.849Z,13.90
2018-08-25T01:01:37.101Z,13.80
2018-08-25T01:06:40.373Z,13.80
2018-08-25T01:11:43.639Z,13.80
2018-08-25T01:16:46.896Z,13.70
2018-08-25T01:21:50.149Z,13.70
2018-08-25T01:26:53.467Z,13.60
2018-08-25T01:31:56.768Z,13.50
2018-08-25T01:37:00.017Z,13.40
2018-08-25T01:42:03.341Z,13.30
2018-08-25T01:47:06.600Z,13.30
2018-08-25T01:52:09.865Z,13.30
2018-08-25T01:57:13.130Z,13.20
2018-08-25T02:02:16.402Z,13.20
2018-08-25T02:07:19.664Z,13.10
2018-08-25T02:12:23.751Z,13.10
2018-08-25T02:17:27.070Z,13.10
2018-08-25T02:22:30.349Z,13.00
2018-08-25T02:27:33.633Z,12.90
2018-08-25T02:37:39.905Z,12.90
2018-08-25T02:42:43.190Z,12.80
2018-08-25T02:47:46.462Z,12.90
2018-08-25T02:52:49.710Z,12.80
2018-08-25T02:57:52.976Z,12.90
2018-08-25T03:02:56.239Z,13.00
2018-08-25T03:07:59.499Z,12.90
2018-08-25T03:13:02.792Z,12.90
2018-08-25T03:18:06.060Z,12.90
2018-08-25T03:23:09.307Z,12.80
2018-08-25T03:33:15.572Z,12.80
2018-08-25T03:38:18.868Z,12.80
2018-08-25T03:43:22.079Z,12.80
2018-08-25T03:48:25.338Z,12.80
2018-08-25T03:53:28.599Z,12.80
2018-08-25T03:58:31.856Z,12.80
2018-08-25T04:08:38.139Z,12.80
2018-08-25T04:13:41.395Z,12.70
2018-08-25T04:18:44.653Z,12.70
2018-08-25T04:23:47.903Z,12.70
2018-08-25T04:28:51.270Z,12.70
2018-08-25T04:33:56.384Z,12.80
2018-08-25T04:38:59.644Z,12.70
2018-08-25T04:44:02.918Z,12.70
2018-08-25T04:49:06.419Z,12.70
2018-08-25T04:54:09.692Z,12.70
2018-08-25T04:59:12.953Z,12.80
2018-08-25T05:04:16.207Z,12.80
2018-08-25T05:09:19.468Z,12.80
2018-08-25T05:14:22.727Z,12.90
2018-08-25T05:19:25.980Z,12.90
2018-08-25T05:24:29.223Z,12.90
2018-08-25T05:29:32.488Z,13.00
2018-08-25T05:34:35.747Z,13.10
2018-08-25T05:39:39.007Z,13.00
2018-08-25T05:44:42.271Z,13.00
2018-08-25T05:54:48.523Z,13.10
2018-08-25T05:59:51.798Z,13.10
2018-08-25T06:04:55.083Z,13.10
2018-08-25T06:09:58.330Z,13.20
2018-08-25T06:15:01.610Z,13.30
2018-08-25T06:20:04.887Z,13.30
2018-08-25T06:25:08.675Z,13.30
2018-08-25T06:30:11.999Z,13.30
2018-08-25T06:35:15.275Z,13.30
2018-08-25T06:40:18.624Z,13.40
2018-08-25T06:50:25.652Z,13.50
2018-08-25T06:55:28.907Z,13.60
2018-08-25T07:00:32.181Z,13.80
2018-08-25T07:05:35.463Z,13.90
2018-08-25T07:10:38.738Z,14.00
2018-08-25T07:15:42.015Z,14.20
2018-08-25T07:20:45.295Z,14.20
2018-08-25T07:25:48.623Z,14.30
2018-08-25T07:35:54.794Z,14.40
2018-08-25T07:40:58.044Z,14.50
2018-08-25T07:46:01.291Z,14.60
2018-08-25T07:51:04.652Z,14.80
2018-08-25T07:56:08.260Z,14.70
2018-08-25T08:01:11.529Z,14.70
2018-08-25T08:06:14.814Z,14.60
2018-08-25T08:11:18.051Z,14.70
2018-08-25T08:16:21.342Z,14.80
2018-08-25T08:21:24.679Z,14.80
2018-08-25T08:26:28.135Z,14.90
2018-08-25T08:31:31.384Z,15.00
2018-08-25T08:36:34.615Z,15.10
2018-08-25T08:41:38.287Z,15.20
2018-08-25T08:46:41.523Z,15.20
2018-08-25T08:51:44.776Z,15.10
2018-08-25T08:56:48.056Z,15.20
2018-08-25T09:01:51.509Z,15.20
2018-08-25T09:06:54.772Z,15.30
2018-08-25T09:11:58.073Z,15.40
2018-08-25T09:17:01.300Z,15.50
2018-08-25T09:22:04.582Z,15.50
2018-08-25T09:27:07.810Z,15.60
2018-08-25T09:32:11.086Z,15.60
2018-08-25T09:37:14.332Z,15.80
2018-08-25T09:47:20.754Z,15.90
2018-08-25T09:52:24.079Z,15.90
2018-08-25T09:57:27.275Z,15.90
2018-08-25T10:02:30.524Z,15.90
2018-08-25T10:07:34.023Z,16.30
2018-08-25T10:12:37.727Z,16.40
2018-08-25T10:17:40.967Z,16.30
2018-08-25T10:22:44.459Z,16.30
2018-08-25T10:27:48.569Z,16.30
2018-08-25T10:32:51.864Z,16.60
2018-08-25T10:37:55.126Z,16.50
2018-08-25T10:42:58.386Z,16.50
2018-08-25T10:53:05.121Z,16.40
2018-08-25T10:58:08.402Z,16.60
2018-08-25T11:03:11.676Z,16.60
2018-08-25T11:08:14.935Z,16.60
2018-08-25T11:13:18.182Z,16.50
2018-08-25T11:18:21.451Z,16.60
2018-08-25T11:23:25.216Z,16.60
2018-08-25T11:28:28.740Z,16.70
2018-08-25T11:38:35.414Z,16.70
2018-08-25T11:43:38.658Z,16.80
2018-08-25T11:48:43.283Z,16.80
2018-08-25T11:53:46.702Z,17.00
2018-08-25T11:58:50.010Z,16.70
2018-08-25T12:03:53.330Z,16.70
2018-08-25T12:08:56.556Z,16.70
2018-08-25T12:14:00.071Z,16.60
2018-08-25T12:19:04.750Z,16.60
2018-08-25T12:24:11.414Z,16.70
2018-08-25T12:34:17.719Z,14.90
2018-08-25T12:44:27.168Z,14.50
2018-08-25T12:49:30.424Z,14.80
2018-08-25T12:54:33.669Z,14.80
2018-08-25T12:59:36.920Z,14.90
2018-08-25T13:04:40.413Z,15.20
2018-08-25T13:09:44.465Z,15.50
2018-08-25T13:14:47.731Z,15.40
2018-08-25T13:19:50.960Z,15.30
2018-08-25T13:24:55.707Z,15.40
2018-08-25T13:29:59.036Z,15.40
2018-08-25T13:35:02.348Z,15.40
2018-08-25T13:40:06.013Z,15.60
2018-08-25T13:45:09.253Z,15.60
2018-08-25T13:50:12.508Z,15.40
2018-08-25T13:55:15.892Z,15.40
2018-08-25T14:00:19.157Z,15.50
2018-08-25T14:10:26.064Z,15.60
2018-08-25T14:15:29.344Z,15.80
2018-08-25T14:20:32.585Z,15.80
2018-08-25T14:25:35.832Z,15.80
2018-08-25T14:30:39.093Z,15.80
2018-08-25T14:35:42.347Z,15.70
2018-08-25T14:40:45.625Z,15.80
2018-08-25T14:45:49.908Z,15.70
2018-08-25T14:50:53.528Z,15.70
2018-08-25T14:55:56.828Z,15.80
2018-08-25T15:01:00.151Z,15.70
2018-08-25T15:06:03.327Z,15.70
2018-08-25T15:11:06.910Z,15.40
2018-08-25T15:16:11.034Z,15.40
2018-08-25T15:21:14.300Z,15.40
2018-08-25T15:26:17.590Z,15.50
2018-08-25T15:31:20.949Z,15.40
2018-08-25T15:36:24.278Z,15.30
2018-08-25T15:41:27.522Z,15.30
2018-08-25T15:46:30.791Z,15.10
2018-08-25T15:51:34.027Z,15.00
2018-08-25T15:56:37.252Z,15.00
2018-08-25T16:01:40.635Z,14.90
2018-08-25T16:11:47.870Z,15.00
2018-08-25T16:16:51.816Z,15.00
2018-08-25T16:21:55.091Z,15.00
2018-08-25T16:26:58.417Z,15.00
2018-08-25T16:32:01.603Z,14.90
2018-08-25T16:37:05.636Z,14.90
2018-08-25T16:42:09.219Z,14.90
2018-08-25T16:47:13.046Z,14.80
2018-08-25T16:52:17.295Z,14.80
2018-08-25T16:57:20.693Z,14.60
2018-08-25T17:02:24.414Z,14.60
2018-08-25T17:07:27.807Z,14.60
2018-08-25T17:12:31.351Z,14.60
2018-08-25T17:17:35.127Z,14.60
2018-08-25T17:22:38.780Z,14.50
2018-08-25T17:27:42.687Z,14.30
2018-08-25T17:32:46.323Z,14.30
2018-08-25T17:37:49.585Z,14.30
2018-08-25T17:42:52.831Z,14.30
2018-08-25T17:47:57.523Z,14.30
2018-08-25T17:53:00.895Z,14.30
2018-08-25T17:58:04.147Z,14.10
2018-08-25T18:33:26.509Z,13.60
2018-08-25T18:53:38.878Z,13.50
2018-08-25T18:58:42.163Z,13.50
2018-08-25T19:13:51.744Z,13.50
2018-08-25T19:23:58.387Z,13.40
2018-08-25T19:29:01.855Z,13.40
2018-08-25T19:34:05.367Z,13.40
2018-08-25T19:39:09.815Z,13.30
2018-08-25T19:44:13.832Z,13.30
2018-08-25T19:49:17.180Z,13.30
2018-08-25T19:54:20.747Z,13.20
2018-08-25T20:19:37.624Z,13.00
2018-08-25T20:24:41.342Z,13.00
2018-08-25T20:29:44.792Z,13.00
2018-08-25T20:34:48.233Z,13.00
2018-08-25T20:39:52.256Z,12.90
2018-08-25T20:44:55.754Z,12.90
2018-08-25T20:49:59.670Z,12.90
2018-08-25T20:55:03.686Z,13.00
2018-08-25T21:05:11.197Z,12.90
2018-08-25T21:20:20.645Z,12.80
2018-08-25T21:25:24.247Z,12.80
2018-08-25T21:40:33.665Z,12.70
2018-08-25T21:55:43.818Z,12.70
2018-08-25T22:00:52.400Z,12.70
2018-08-25T22:05:56.572Z,12.60
2018-08-25T22:10:59.880Z,12.70
2018-08-25T22:26:09.175Z,12.60
2018-08-25T22:31:12.473Z,12.60
2018-08-25T22:36:15.735Z,12.60
2018-08-25T22:41:19.041Z,12.50
2018-08-25T22:46:22.288Z,12.50
2018-08-25T22:56:28.546Z,12.50
2018-08-25T23:06:34.839Z,12.50
2018-08-25T23:11:38.283Z,12.50
2018-08-25T23:16:41.535Z,12.40
2018-08-25T23:21:44.783Z,12.40
2018-08-25T23:26:48.039Z,12.40
2018-08-25T23:31:51.278Z,12.40
2018-08-25T23:36:54.548Z,12.40
2018-08-25T23:41:57.805Z,12.40
2018-08-25T23:47:01.085Z,12.30
2018-08-25T23:52:04.347Z,12.20
2018-08-25T23:57:07.598Z,12.20
